Time;durP1;ratioP1;P1;durP2;ratioP2;P2;SDS_P1;SDS_P2;PMS_P1;PMS_P2;Temp;Humidity;BMP_temperature;BMP_pressure;BME280_temperature;BME280_humidity;BME280_pressure;Samples;Min_cycle;Max_cycle;Signal;HPM_P1;HPM_P2
2023/05/22 00:00:38;;;;;;;;;;;;;;;16.14;100.00;101464.97;5034906;28;20001;-86
2023/05/22 00:03:03;;;;;;;;;;;;;;;16.17;100.00;101461.94;5044999;28;19928;-86
2023/05/22 00:05:29;;;;;;;;;;;;;;;16.10;100.00;101463.53;5035320;28;20770;-86
2023/05/22 00:07:54;;;;;;;;;;;;;;;16.09;100.00;101465.38;5040885;28;19956;-86
2023/05/22 00:10:19;;;;;;;;;;;;;;;16.02;100.00;101478.63;5020817;28;19937;-86
2023/05/22 00:12:45;;;;;;;;;;;;;;;16.00;100.00;101475.19;5043639;28;20043;-85
2023/05/22 00:15:10;;;;;;;;;;;;;;;16.00;100.00;101466.22;5023654;28;19948;-86
2023/05/22 00:17:35;;;;;;;;;;;;;;;15.97;100.00;101475.47;5051544;28;20019;-86
2023/05/22 00:20:03;;;;;;;;;;;;;;;15.98;100.00;101466.34;5035355;28;19921;-86
2023/05/22 00:22:30;;;;;;;;;;;;;;;16.00;100.00;101472.47;5032324;28;20016;-86
2023/05/22 00:24:56;;;;;;;;;;;;;;;16.00;100.00;101469.78;5035763;28;19921;-86
2023/05/22 00:27:21;;;;;;;;;;;;;;;15.97;100.00;101475.47;5036745;28;19962;-86
2023/05/22 00:29:46;;;;;;;;;;;;;;;15.99;100.00;101465.34;5038198;28;19921;-86
2023/05/22 00:32:12;;;;;;;;;;;;;;;15.97;100.00;101456.50;5026871;28;19958;-86
2023/05/22 00:34:37;;;;;;;;;;;;;;;15.97;100.00;101448.38;5024739;28;19921;-85
2023/05/22 00:37:02;;;;;;;;;;;;;;;15.96;100.00;101441.25;5026286;28;19921;-86
2023/05/22 00:39:27;;;;;;;;;;;;;;;15.96;100.00;101440.41;5036481;28;19913;-86
2023/05/22 00:41:53;;;;;;;;;;;;;;;15.88;100.00;101441.97;5043788;28;19916;-86
2023/05/22 00:44:18;;;;;;;;;;;;;;;15.81;100.00;101442.63;5045664;28;19925;-86
2023/05/22 00:46:43;;;;;;;;;;;;;;;15.84;100.00;101439.66;5044445;28;19921;-85
2023/05/22 00:49:08;;;;;;;;;;;;;;;15.80;100.00;101444.47;5024055;28;19931;-86
2023/05/22 00:51:33;;;;;;;;;;;;;;;15.75;100.00;101444.91;5041827;28;19974;-85
2023/05/22 00:53:59;;;;;;;;;;;;;;;15.64;100.00;101423.34;5034135;28;19929;-86
2023/05/22 00:56:25;;;;;;;;;;;;;;;15.80;100.00;101440.94;5038630;28;19921;-86
2023/05/22 00:58:51;;;;;;;;;;;;;;;15.78;100.00;101442.91;5037175;28;19917;-86
2023/05/22 01:01:16;;;;;;;;;;;;;;;15.71;100.00;101438.03;5022938;28;19927;-85
2023/05/22 01:03:43;;;;;;;;;;;;;;;15.70;100.00;101440.91;5052020;28;19924;-86
2023/05/22 01:06:12;;;;;;;;;;;;;;;15.65;100.00;101448.56;5038644;28;19948;-86
2023/05/22 01:08:37;;;;;;;;;;;;;;;15.64;100.00;101447.72;5018558;28;20430;-86
2023/05/22 01:11:04;;;;;;;;;;;;;;;15.63;100.00;101445.16;5040155;28;19929;-86
2023/05/22 01:13:29;;;;;;;;;;;;;;;15.64;100.00;101441.44;5026655;28;19925;-86
2023/05/22 01:15:56;;;;;;;;;;;;;;;15.59;100.00;101442.72;5030273;28;19979;-86
2023/05/22 01:18:25;;;;;;;;;;;;;;;15.58;100.00;101442.88;5027500;28;19967;-85
2023/05/22 01:20:56;;;;;;;;;;;;;;;15.52;100.00;101441.53;5037710;28;19974;-86
2023/05/22 01:23:56;;;;;;;;;;;;;;;15.46;100.00;101431.28;5025770;28;20016;-86
2023/05/22 01:26:21;;;;;;;;;;;;;;;15.37;100.00;101427.53;4990618;28;20256;-85
2023/05/22 01:29:02;;;;;;;;;;;;;;;15.34;100.00;101430.53;5042916;28;19927;-85
2023/05/22 01:31:28;;;;;;;;;;;;;;;15.32;100.00;101426.25;5031236;28;19913;-86
2023/05/22 01:33:55;;;;;;;;;;;;;;;15.27;100.00;101424.78;5027069;28;19995;-85
2023/05/22 01:36:23;;;;;;;;;;;;;;;15.25;100.00;101431.34;5032382;28;19931;-86
2023/05/22 01:38:48;;;;;;;;;;;;;;;15.21;100.00;101427.19;5029912;28;19944;-85
2023/05/22 01:41:14;;;;;;;;;;;;;;;15.23;100.00;101430.63;5040916;28;20005;-85
2023/05/22 01:43:40;;;;;;;;;;;;;;;15.22;100.00;101435.19;5024622;28;19982;-85
2023/05/22 01:46:05;;;;;;;;;;;;;;;15.23;100.00;101438.75;5038769;28;19929;-86
2023/05/22 01:48:31;;;;;;;;;;;;;;;15.16;100.00;101427.63;5035605;28;20350;-85
2023/05/22 01:50:56;;;;;;;;;;;;;;;15.09;100.00;101424.59;5026338;28;20290;-86
2023/05/22 01:53:29;;;;;;;;;;;;;;;15.08;100.00;101424.72;5022115;28;19923;-86
2023/05/22 01:55:56;;;;;;;;;;;;;;;15.12;100.00;101434.28;5037686;28;19932;-86
2023/05/22 01:58:41;;;;;;;;;;;;;;;15.05;100.00;101423.16;5037030;28;19943;-86
2023/05/22 02:01:07;;;;;;;;;;;;;;;15.02;100.00;101420.72;5041174;28;19917;-85
2023/05/22 02:03:32;;;;;;;;;;;;;;;14.95;100.00;101416.81;5023740;28;20397;-85
2023/05/22 02:05:58;;;;;;;;;;;;;;;14.86;100.00;101421.19;5023093;28;19921;-85
2023/05/22 02:08:24;;;;;;;;;;;;;;;14.86;100.00;101421.19;5024767;28;19955;-85
2023/05/22 02:10:49;;;;;;;;;;;;;;;14.88;100.00;101421.03;5022021;28;19924;-85
2023/05/22 02:13:14;;;;;;;;;;;;;;;14.85;100.00;101423.03;5036125;28;20768;-85
2023/05/22 02:15:40;;;;;;;;;;;;;;;14.80;100.00;101419.00;5024073;28;20813;-85
2023/05/22 02:18:08;;;;;;;;;;;;;;;14.85;100.00;101423.03;5021481;28;20429;-85
2023/05/22 02:20:34;;;;;;;;;;;;;;;14.85;100.00;101422.19;5022664;28;19928;-85
2023/05/22 02:22:59;;;;;;;;;;;;;;;14.76;100.00;101423.84;5055046;28;19924;-86
2023/05/22 02:25:24;;;;;;;;;;;;;;;14.74;100.00;101417.72;5028404;28;19928;-86
2023/05/22 02:27:49;;;;;;;;;;;;;;;14.77;100.00;101422.84;5022779;28;20020;-84
2023/05/22 02:30:15;;;;;;;;;;;;;;;14.75;100.00;101422.13;5019978;28;20029;-86
2023/05/22 02:32:40;;;;;;;;;;;;;;;14.70;100.00;101411.69;5020002;28;19921;-85
2023/05/22 02:35:07;;;;;;;;;;;;;;;14.63;100.00;101413.19;5037547;28;20454;-84
2023/05/22 02:37:32;;;;;;;;;;;;;;;14.64;100.00;101403.22;5026989;28;19928;-85
2023/05/22 02:39:57;;;;;;;;;;;;;;;14.62;100.00;101399.81;5020522;28;20298;-85
2023/05/22 02:42:22;;;;;;;;;;;;;;;14.51;100.00;101404.31;5024833;28;19916;-86
2023/05/22 02:44:48;;;;;;;;;;;;;;;14.47;100.00;101407.38;5038698;28;20371;-86
2023/05/22 02:47:13;;;;;;;;;;;;;;;14.44;100.00;101404.94;5038959;28;20014;-85
2023/05/22 02:49:38;;;;;;;;;;;;;;;14.35;100.00;101402.06;5036664;28;19999;-86
2023/05/22 02:52:03;;;;;;;;;;;;;;;14.31;100.00;101397.91;5025292;28;19916;-86
2023/05/22 02:54:29;;;;;;;;;;;;;;;14.32;100.00;101396.03;5025680;28;19925;-85
2023/05/22 02:56:54;;;;;;;;;;;;;;;14.32;100.00;101390.63;5021027;28;19924;-85
2023/05/22 02:59:19;;;;;;;;;;;;;;;14.32;100.00;101394.22;5033297;28;19968;-85
2023/05/22 03:01:47;;;;;;;;;;;;;;;14.28;100.00;101387.34;5041524;28;19921;-85
2023/05/22 03:04:12;;;;;;;;;;;;;;;14.24;100.00;101391.28;5039459;28;19927;-85
2023/05/22 03:06:38;;;;;;;;;;;;;;;14.22;100.00;101393.25;5054079;28;19921;-85
2023/05/22 03:09:03;;;;;;;;;;;;;;;14.17;100.00;101392.81;5051592;28;19921;-85
2023/05/22 03:11:29;;;;;;;;;;;;;;;14.14;100.00;101391.22;5021841;28;19921;-85
2023/05/22 03:13:54;;;;;;;;;;;;;;;14.14;100.00;101385.81;5035989;28;19943;-85
2023/05/22 03:16:19;;;;;;;;;;;;;;;14.15;100.00;101384.84;5032978;28;20445;-85
2023/05/22 03:18:45;;;;;;;;;;;;;;;14.11;100.00;101383.38;5040686;28;20346;-85
2023/05/22 03:21:10;;;;;;;;;;;;;;;14.10;100.00;101387.06;5039744;28;20367;-85
2023/05/22 03:23:35;;;;;;;;;;;;;;;14.12;100.00;101385.09;5042937;28;19928;-85
2023/05/22 03:26:00;;;;;;;;;;;;;;;14.14;100.00;101377.72;5040118;28;19940;-86
2023/05/22 03:28:26;;;;;;;;;;;;;;;14.14;100.00;101382.28;5029095;28;20371;-85
2023/05/22 03:30:51;;;;;;;;;;;;;;;14.11;100.00;101375.28;5049678;28;20358;-85
2023/05/22 03:33:16;;;;;;;;;;;;;;;14.13;100.00;101376.00;5027169;28;20379;-85
2023/05/22 03:35:43;;;;;;;;;;;;;;;14.14;100.00;101376.88;5049134;28;19968;-85
2023/05/22 03:38:08;;;;;;;;;;;;;;;14.20;100.00;101379.03;5040077;28;19929;-86
2023/05/22 03:40:33;;;;;;;;;;;;;;;14.18;100.00;101384.56;5045908;28;19917;-85
2023/05/22 03:42:59;;;;;;;;;;;;;;;14.20;100.00;101369.09;5040481;28;19925;-86
2023/05/22 03:45:24;;;;;;;;;;;;;;;14.24;100.00;101373.25;5027801;28;19927;-85
2023/05/22 03:47:49;;;;;;;;;;;;;;;14.28;100.00;101373.00;5029119;28;19925;-85
2023/05/22 03:50:14;;;;;;;;;;;;;;;14.21;100.00;101376.22;5042638;28;19925;-86
2023/05/22 03:52:40;;;;;;;;;;;;;;;14.22;100.00;101375.22;5029377;28;19924;-86
2023/05/22 03:55:05;;;;;;;;;;;;;;;14.24;100.00;101375.97;5041009;28;19920;-86
2023/05/22 03:57:30;;;;;;;;;;;;;;;14.27;100.00;101379.38;5025781;28;19928;-86
2023/05/22 03:59:56;;;;;;;;;;;;;;;14.24;100.00;101384.06;5020586;28;20350;-86
2023/05/22 04:02:25;;;;;;;;;;;;;;;14.15;100.00;101382.13;5023987;28;19924;-85
2023/05/22 04:04:50;;;;;;;;;;;;;;;14.14;100.00;101374.19;5025198;28;20334;-85
2023/05/22 04:07:17;;;;;;;;;;;;;;;14.12;100.00;101376.16;5027161;28;19917;-85
2023/05/22 04:09:42;;;;;;;;;;;;;;;14.01;100.00;101367.09;5024852;28;19921;-85
2023/05/22 04:12:07;;;;;;;;;;;;;;;14.03;100.00;101365.13;5039427;28;19927;-85
2023/05/22 04:14:32;;;;;;;;;;;;;;;14.17;100.00;101377.47;5041847;28;19921;-85
2023/05/22 04:16:58;;;;;;;;;;;;;;;14.22;100.00;101379.75;5026758;28;19924;-85
2023/05/22 04:19:23;;;;;;;;;;;;;;;14.27;100.00;101377.53;5021100;28;19967;-85
2023/05/22 04:21:48;;;;;;;;;;;;;;;14.27;100.00;101374.00;5027221;28;19927;-86
2023/05/22 04:24:13;;;;;;;;;;;;;;;14.24;100.00;101377.78;5025492;28;19921;-86
2023/05/22 04:26:39;;;;;;;;;;;;;;;14.21;100.00;101378.91;5044287;28;19925;-85
2023/05/22 04:29:09;;;;;;;;;;;;;;;14.10;100.00;101378.97;5035971;28;20326;-85
2023/05/22 04:31:34;;;;;;;;;;;;;;;14.11;100.00;101377.97;5040383;28;20449;-85
2023/05/22 04:33:59;;;;;;;;;;;;;;;13.97;100.00;101379.13;5020259;28;19928;-86
2023/05/22 04:36:25;;;;;;;;;;;;;;;13.98;100.00;101377.31;5037916;28;19932;-86
2023/05/22 04:38:51;;;;;;;;;;;;;;;14.02;100.00;101384.16;5025513;28;19942;-85
2023/05/22 04:41:21;;;;;;;;;;;;;;;13.99;100.00;101379.88;5025369;28;20623;-86
2023/05/22 04:43:47;;;;;;;;;;;;;;;14.10;100.00;101387.94;5039931;28;20018;-86
2023/05/22 04:46:16;;;;;;;;;;;;;;;14.07;100.00;101393.59;5058982;28;20411;-85
2023/05/22 04:48:41;;;;;;;;;;;;;;;14.08;100.00;101391.72;5023163;28;21659;-85
2023/05/22 04:51:06;;;;;;;;;;;;;;;13.98;100.00;101388.94;5040676;28;19928;-86
2023/05/22 04:53:32;;;;;;;;;;;;;;;13.99;100.00;101392.53;5024856;28;19924;-87
2023/05/22 04:55:57;;;;;;;;;;;;;;;14.04;100.00;101387.56;5024080;28;19932;-86
2023/05/22 04:58:23;;;;;;;;;;;;;;;14.01;100.00;101393.25;5024567;28;20459;-86
2023/05/22 05:00:48;;;;;;;;;;;;;;;14.00;100.00;101388.84;5036636;28;19920;-86
2023/05/22 05:03:13;;;;;;;;;;;;;;;14.01;100.00;101393.25;5019087;28;19952;-86
2023/05/22 05:05:39;;;;;;;;;;;;;;;14.02;100.00;101393.09;5056833;28;19947;-86
2023/05/22 05:08:04;;;;;;;;;;;;;;;14.09;100.00;101391.63;5037146;28;20011;-86
2023/05/22 05:10:29;;;;;;;;;;;;;;;14.18;100.00;101400.78;5022651;28;19925;-86
2023/05/22 05:12:55;;;;;;;;;;;;;;;14.27;100.00;101401.00;5024766;28;19967;-86
2023/05/22 05:15:21;;;;;;;;;;;;;;;14.27;100.00;101398.31;5026230;28;19925;-87
2023/05/22 05:17:46;;;;;;;;;;;;;;;14.20;100.00;101398.81;5040612;28;19921;-86
2023/05/22 05:20:13;;;;;;;;;;;;;;;14.23;100.00;101401.25;5022890;28;19964;-87
2023/05/22 05:22:39;;;;;;;;;;;;;;;14.23;100.00;101398.56;5035966;28;19921;-86
2023/05/22 05:25:04;;;;;;;;;;;;;;;14.33;100.00;101401.31;5021121;28;19923;-86
2023/05/22 05:27:29;;;;;;;;;;;;;;;14.24;100.00;101407.50;5038770;28;19927;-86
2023/05/22 05:29:55;;;;;;;;;;;;;;;14.09;100.00;101402.41;5040064;28;20006;-86
2023/05/22 05:32:20;;;;;;;;;;;;;;;14.07;100.00;101411.63;5035482;28;20436;-86
2023/05/22 05:34:45;;;;;;;;;;;;;;;14.04;100.00;101406.47;5042160;28;20023;-86
2023/05/22 05:37:10;;;;;;;;;;;;;;;14.08;100.00;101410.63;5033394;28;20362;-87
2023/05/22 05:39:35;;;;;;;;;;;;;;;14.03;100.00;101416.44;5042832;28;20283;-86
2023/05/22 05:42:01;;;;;;;;;;;;;;;14.12;100.00;101414.78;5021017;28;19925;-86
2023/05/22 05:44:26;;;;;;;;;;;;;;;14.22;100.00;101414.88;5024573;28;19924;-87
2023/05/22 05:46:52;;;;;;;;;;;;;;;14.23;100.00;101408.47;5020638;28;20418;-86
2023/05/22 05:49:18;;;;;;;;;;;;;;;14.20;100.00;101416.84;5025419;28;19921;-86
2023/05/22 05:51:43;;;;;;;;;;;;;;;14.27;100.00;101417.19;5023671;28;19927;-87
2023/05/22 05:54:08;;;;;;;;;;;;;;;14.20;100.00;101414.13;5023618;28;19963;-86
2023/05/22 05:56:33;;;;;;;;;;;;;;;14.17;100.00;101427.94;5027901;28;19924;-86
2023/05/22 05:58:58;;;;;;;;;;;;;;;14.08;100.00;101424.13;5032923;28;19929;-86
2023/05/22 06:01:25;;;;;;;;;;;;;;;14.15;100.00;101432.59;5039248;28;19927;-86
2023/05/22 06:03:51;;;;;;;;;;;;;;;14.23;100.00;101424.69;5027633;28;19943;-86
2023/05/22 06:06:17;;;;;;;;;;;;;;;14.15;100.00;101430.75;5025607;28;20049;-85
2023/05/22 06:08:43;;;;;;;;;;;;;;;14.19;100.00;101429.50;5016923;28;20062;-85
2023/05/22 06:11:08;;;;;;;;;;;;;;;14.10;100.00;101431.13;5033552;28;20026;-86
2023/05/22 06:13:33;;;;;;;;;;;;;;;14.13;100.00;101429.16;5016419;28;19917;-86
2023/05/22 06:15:59;;;;;;;;;;;;;;;14.21;100.00;101432.94;5018200;28;19936;-85
2023/05/22 06:18:26;;;;;;;;;;;;;;;14.10;100.00;101433.84;5027195;28;19921;-87
2023/05/22 06:20:52;;;;;;;;;;;;;;;14.10;100.00;101424.84;5025294;28;19921;-85
2023/05/22 06:23:17;;;;;;;;;;;;;;;14.20;100.00;101428.50;5025880;28;19962;-85
2023/05/22 06:25:42;;;;;;;;;;;;;;;14.25;100.00;101428.13;5025549;28;19928;-85
2023/05/22 06:28:08;;;;;;;;;;;;;;;14.29;100.00;101432.28;5016729;28;19928;-86
2023/05/22 06:30:33;;;;;;;;;;;;;;;14.25;100.00;101437.09;5023233;28;20025;-86
2023/05/22 06:32:59;;;;;;;;;;;;;;;14.39;100.00;101438.63;5041370;28;19951;-85
2023/05/22 06:35:26;;;;;;;;;;;;;;;14.40;100.00;101455.69;5041253;28;19925;-86
2023/05/22 06:37:51;;;;;;;;;;;;;;;14.38;100.00;101447.72;5022267;28;19939;-86
2023/05/22 06:40:17;;;;;;;;;;;;;;;14.31;100.00;101453.75;5038283;28;20372;-87
2023/05/22 06:42:43;;;;;;;;;;;;;;;14.31;100.00;101454.63;5034287;28;19952;-86
2023/05/22 06:45:08;;;;;;;;;;;;;;;14.25;100.00;101461.41;5010779;28;20321;-87
2023/05/22 06:47:33;;;;;;;;;;;;;;;14.41;100.00;101457.41;5027693;28;19921;-86
2023/05/22 06:49:59;;;;;;;;;;;;;;;14.40;100.00;101466.50;5012993;28;19960;-86
2023/05/22 06:52:24;;;;;;;;;;;;;;;14.22;100.00;101472.47;5047585;28;20322;-87
2023/05/22 06:54:49;;;;;;;;;;;;;;;14.28;100.00;101467.53;5041634;28;19925;-86
2023/05/22 06:57:14;;;;;;;;;;;;;;;14.37;100.00;101459.50;5032488;28;20532;-86
2023/05/22 06:59:40;;;;;;;;;;;;;;;14.33;100.00;101468.84;5014505;28;20374;-86
2023/05/22 07:02:05;;;;;;;;;;;;;;;14.45;100.00;101471.50;5022900;28;20018;-86
2023/05/22 07:04:30;;;;;;;;;;;;;;;14.64;100.00;101465.38;5025643;28;19961;-86
2023/05/22 07:06:56;;;;;;;;;;;;;;;14.68;100.00;101474.94;5021280;28;19984;-88
2023/05/22 07:09:21;;;;;;;;;;;;;;;14.79;100.00;101476.78;5039541;28;19920;-86
2023/05/22 07:11:49;;;;;;;;;;;;;;;14.63;100.00;101466.38;5026755;28;20007;-88
2023/05/22 07:14:14;;;;;;;;;;;;;;;14.72;100.00;101473.75;5015813;28;20062;-87
2023/05/22 07:16:40;;;;;;;;;;;;;;;14.86;100.00;101475.25;5021746;28;19971;-87
2023/05/22 07:19:05;;;;;;;;;;;;;;;14.90;100.00;101482.13;5031539;28;19928;-86
2023/05/22 07:21:31;;;;;;;;;;;;;;;15.06;100.00;101487.06;5034706;28;19917;-85
2023/05/22 07:23:56;;;;;;;;;;;;;;;15.10;100.00;101485.78;5030136;28;20230;-86
2023/05/22 07:26:22;;;;;;;;;;;;;;;15.10;100.00;101483.06;5019818;28;19921;-87
2023/05/22 07:28:50;;;;;;;;;;;;;;;15.06;100.00;101484.34;5018965;28;19921;-88
2023/05/22 07:31:15;;;;;;;;;;;;;;;15.18;100.00;101490.53;5020747;28;20334;-86
2023/05/22 07:33:41;;;;;;;;;;;;;;;15.32;100.00;101493.88;5017229;28;19916;-87
2023/05/22 07:36:06;;;;;;;;;;;;;;;15.43;100.00;101491.94;5030764;28;19932;-86
2023/05/22 07:38:31;;;;;;;;;;;;;;;15.58;100.00;101492.44;5021386;28;20442;-86
2023/05/22 07:40:56;;;;;;;;;;;;;;;15.73;100.00;101492.06;5018357;28;19921;-86
2023/05/22 07:43:22;;;;;;;;;;;;;;;15.85;100.00;101496.38;5017567;28;19944;-86
2023/05/22 07:45:47;;;;;;;;;;;;;;;16.01;100.00;101486.91;5040684;28;19952;-86
2023/05/22 07:48:12;;;;;;;;;;;;;;;16.14;100.00;101486.63;5042059;28;19966;-86
2023/05/22 07:50:37;;;;;;;;;;;;;;;16.01;100.00;101487.75;5027922;28;19921;-86
2023/05/22 07:53:03;;;;;;;;;;;;;;;16.11;100.00;101485.03;5042518;28;19920;-86
2023/05/22 07:55:28;;;;;;;;;;;;;;;16.36;100.00;101485.50;5026725;28;20240;-87
2023/05/22 07:57:54;;;;;;;;;;;;;;;16.50;100.00;101486.94;5027733;28;19913;-87
2023/05/22 08:00:20;;;;;;;;;;;;;;;16.36;100.00;101480.06;5029562;28;20263;-88
2023/05/22 08:02:45;;;;;;;;;;;;;;;16.74;100.00;101483.78;5021301;28;19944;-86
2023/05/22 08:05:11;;;;;;;;;;;;;;;17.00;100.00;101496.75;5022561;28;19927;-85
2023/05/22 08:07:36;;;;;;;;;;;;;;;16.99;100.00;101492.34;5018772;28;19924;-88
2023/05/22 08:10:02;;;;;;;;;;;;;;;17.12;100.00;101489.31;5036409;28;19950;-87
2023/05/22 08:12:27;;;;;;;;;;;;;;;17.23;100.00;101472.00;5028572;28;19917;-87
2023/05/22 08:14:52;;;;;;;;;;;;;;;17.46;100.00;101480.63;5026976;28;19924;-86
2023/05/22 08:17:18;;;;;;;;;;;;;;;17.59;100.00;101491.16;5035060;28;19917;-87
2023/05/22 08:19:43;;;;;;;;;;;;;;;17.63;100.00;101495.25;5042550;28;19928;-87
2023/05/22 08:22:08;;;;;;;;;;;;;;;17.52;100.00;101493.59;5042251;28;19917;-88
2023/05/22 08:24:33;;;;;;;;;;;;;;;17.65;100.00;101490.53;5025406;28;19936;-87
2023/05/22 08:26:59;;;;;;;;;;;;;;;17.95;100.00;101495.81;5020983;28;19975;-86
2023/05/22 08:29:24;;;;;;;;;;;;;;;18.18;100.00;101496.25;5037718;28;19921;-87
2023/05/22 08:31:51;;;;;;;;;;;;;;;18.23;100.00;101488.50;5027633;28;19924;-87
2023/05/22 08:34:16;;;;;;;;;;;;;;;18.34;100.00;101492.00;5027924;28;19957;-86
2023/05/22 08:36:41;;;;;;;;;;;;;;;18.46;100.00;101488.03;5042784;28;19983;-86
2023/05/22 08:39:10;;;;;;;;;;;;;;;18.67;100.00;101482.28;5031069;28;20441;-86
2023/05/22 08:41:36;;;;;;;;;;;;;;;18.71;100.00;101486.41;5038154;28;19921;-86
2023/05/22 08:44:01;;;;;;;;;;;;;;;18.86;100.00;101491.25;5021854;28;19928;-86
2023/05/22 08:46:27;;;;;;;;;;;;;;;19.05;100.00;101486.69;5038367;28;19928;-86
2023/05/22 08:48:56;;;;;;;;;;;;;;;19.27;100.00;101477.09;5024785;28;19921;-86
2023/05/22 08:51:21;;;;;;;;;;;;;;;19.33;100.00;101482.75;5050233;28;19995;-85
2023/05/22 08:53:47;;;;;;;;;;;;;;;19.34;100.00;101473.56;5036610;28;20031;-86
2023/05/22 08:56:13;;;;;;;;;;;;;;;19.59;100.00;101478.28;5037931;28;19946;-88
2023/05/22 08:58:38;;;;;;;;;;;;;;;19.31;100.00;101479.34;5025932;28;20302;-86
2023/05/22 09:01:04;;;;;;;;;;;;;;;19.20;100.00;101470.63;5025473;28;20031;-85
2023/05/22 09:03:34;;;;;;;;;;;;;;;19.38;100.00;101471.38;5040068;28;19921;-85
2023/05/22 09:06:00;;;;;;;;;;;;;;;19.36;100.00;101469.81;5019804;28;21758;-86
2023/05/22 09:08:26;;;;;;;;;;;;;;;19.41;100.00;101465.63;5050630;28;19917;-86
2023/05/22 09:10:53;;;;;;;;;;;;;;;19.57;100.00;101447.63;5022039;28;19921;-84
2023/05/22 09:13:28;;;;;;;;;;;;;;;19.87;100.00;101467.97;5021109;28;19963;-85
2023/05/22 09:16:12;;;;;;;;;;;;;;;20.05;100.00;101473.34;5023406;28;19933;-86
2023/05/22 09:18:37;;;;;;;;;;;;;;;20.22;100.00;101471.50;5021057;28;19929;-86
2023/05/22 09:21:03;;;;;;;;;;;;;;;20.37;100.00;101473.59;5038499;28;20650;-84
2023/05/22 09:23:29;;;;;;;;;;;;;;;20.59;100.00;101472.03;5036246;28;20728;-86
2023/05/22 09:25:55;;;;;;;;;;;;;;;20.79;100.00;101458.94;5038378;28;19916;-86
2023/05/22 09:28:21;;;;;;;;;;;;;;;20.79;100.00;101469.03;5040475;28;20018;-86
2023/05/22 09:30:47;;;;;;;;;;;;;;;20.97;100.00;101466.06;5036466;28;19967;-86
2023/05/22 09:33:12;;;;;;;;;;;;;;;21.31;100.00;101470.44;5021291;28;19920;-87
2023/05/22 09:35:38;;;;;;;;;;;;;;;21.36;100.00;101470.78;5043167;28;19927;-84
2023/05/22 09:38:03;;;;;;;;;;;;;;;21.44;100.00;101464.41;5026613;28;19946;-85
2023/05/22 09:40:28;;;;;;;;;;;;;;;21.46;100.00;101473.28;5036465;28;20325;-84
2023/05/22 09:42:55;;;;;;;;;;;;;;;21.54;100.00;101472.41;5024099;28;19921;-85
2023/05/22 09:45:22;;;;;;;;;;;;;;;21.49;100.00;101467.47;5026536;28;20023;-85
2023/05/22 09:47:50;;;;;;;;;;;;;;;21.53;100.00;101465.22;5023178;28;19921;-87
2023/05/22 09:50:16;;;;;;;;;;;;;;;21.84;100.00;101469.91;5029799;28;19927;-86
2023/05/22 09:52:42;;;;;;;;;;;;;;;22.20;100.00;101458.44;5023950;28;20304;-85
2023/05/22 09:55:07;;;;;;;;;;;;;;;22.09;100.00;101461.56;5036806;28;19917;-82
2023/05/22 09:57:43;;;;;;;;;;;;;;;22.02;100.00;101465.00;5057418;28;19940;-84
2023/05/22 10:00:16;;;;;;;;;;;;;;;22.02;100.00;101462.28;5017160;28;19920;-81
2023/05/22 10:02:44;;;;;;;;;;;;;;;22.24;100.00;101457.03;5038375;28;20429;-86
2023/05/22 10:05:10;;;;;;;;;;;;;;;22.15;100.00;101458.94;5023933;28;19921;-82
2023/05/22 10:07:36;;;;;;;;;;;;;;;22.38;100.00;101454.53;5037126;28;20290;-86
2023/05/22 10:10:11;;;;;;;;;;;;;;;22.07;100.00;101463.63;5027061;28;19951;-85
2023/05/22 10:12:38;;;;;;;;;;;;;;;22.05;100.00;101447.41;5025174;28;19920;-84
2023/05/22 10:15:06;;;;;;;;;;;;;;;22.24;100.00;101448.81;5041037;28;19928;-82
2023/05/22 10:17:31;;;;;;;;;;;;;;;22.26;100.00;101454.94;5020205;28;19929;-83
2023/05/22 10:19:56;;;;;;;;;;;;;;;22.64;100.00;101451.44;5046496;28;19927;-85
2023/05/22 10:22:22;;;;;;;;;;;;;;;23.16;100.00;101451.59;5030021;28;20326;-85
2023/05/22 10:24:47;;;;;;;;;;;;;;;23.35;100.00;101437.38;5027354;28;19924;-85
2023/05/22 10:27:12;;;;;;;;;;;;;;;23.63;100.00;101442.16;5029691;28;20608;-85
2023/05/22 10:30:04;;;;;;;;;;;;;;;24.10;100.00;101439.13;5026788;28;19920;-84
2023/05/22 10:32:34;;;;;;;;;;;;;;;24.40;100.00;101436.25;5022324;28;20422;-85
2023/05/22 10:35:03;;;;;;;;;;;;;;;24.64;100.00;101436.84;5024674;28;19931;-85
2023/05/22 10:37:47;;;;;;;;;;;;;;;24.61;100.00;101434.50;5047191;28;20285;-85
2023/05/22 10:40:13;;;;;;;;;;;;;;;25.24;100.00;101423.56;5044664;28;19927;-85
2023/05/22 10:42:38;;;;;;;;;;;;;;;25.49;100.00;101427.72;5039704;28;20015;-84
2023/05/22 10:45:07;;;;;;;;;;;;;;;25.63;98.04;101436.88;5025262;28;19999;-85
2023/05/22 10:47:33;;;;;;;;;;;;;;;25.48;84.89;101431.53;5034958;28;20396;-86
2023/05/22 10:50:08;;;;;;;;;;;;;;;25.54;91.83;101431.53;5030215;28;19927;-83
2023/05/22 10:52:38;;;;;;;;;;;;;;;25.87;87.19;101427.22;5026227;28;19927;-84
2023/05/22 10:55:07;;;;;;;;;;;;;;;26.15;84.14;101432.59;5024723;28;19921;-83
2023/05/22 10:57:33;;;;;;;;;;;;;;;26.51;81.99;101427.75;5049744;28;20019;-83
2023/05/22 11:00:06;;;;;;;;;;;;;;;26.56;78.57;101422.47;5037118;28;20008;-84
2023/05/22 11:02:31;;;;;;;;;;;;;;;26.47;83.95;101420.97;5027500;28;20525;-84
2023/05/22 11:05:15;;;;;;;;;;;;;;;26.49;76.54;101416.94;5042306;28;19927;-84
2023/05/22 11:07:40;;;;;;;;;;;;;;;25.82;89.63;101424.25;5039128;28;19925;-84
2023/05/22 11:10:06;;;;;;;;;;;;;;;25.85;93.03;101416.44;5022141;28;19921;-84
2023/05/22 11:12:31;;;;;;;;;;;;;;;25.25;98.67;101417.00;5022704;28;19920;-84
2023/05/22 11:15:06;;;;;;;;;;;;;;;25.81;86.10;101417.06;5034958;28;19997;-84
2023/05/22 11:17:32;;;;;;;;;;;;;;;26.04;93.01;101423.03;5018758;28;19931;-84
2023/05/22 11:20:21;;;;;;;;;;;;;;;27.15;77.10;101417.09;5027059;28;19924;-84
2023/05/22 11:22:58;;;;;;;;;;;;;;;27.91;70.59;101411.91;5038203;28;19921;-83
2023/05/22 11:25:24;;;;;;;;;;;;;;;28.44;65.76;101409.84;5015699;28;20029;-83
2023/05/22 11:27:50;;;;;;;;;;;;;;;27.44;70.16;101409.34;5043505;28;19921;-83
2023/05/22 11:30:15;;;;;;;;;;;;;;;27.27;76.42;101399.88;5044030;28;19921;-84
2023/05/22 11:32:46;;;;;;;;;;;;;;;27.30;65.42;101393.94;5025508;28;20328;-84
2023/05/22 11:35:18;;;;;;;;;;;;;;;28.03;66.95;101400.16;5026148;28;19921;-85
2023/05/22 11:37:43;;;;;;;;;;;;;;;28.90;60.10;101399.47;5044048;28;19995;-84
2023/05/22 11:40:09;;;;;;;;;;;;;;;29.43;63.82;101402.72;5044077;28;19991;-84
2023/05/22 11:42:35;;;;;;;;;;;;;;;29.80;60.08;101407.31;5042114;28;19920;-84
2023/05/22 11:45:02;;;;;;;;;;;;;;;30.14;55.72;101416.00;5018665;28;19925;-84
2023/05/22 11:47:27;;;;;;;;;;;;;;;29.99;55.11;101400.66;5034667;28;19967;-84
2023/05/22 11:49:53;;;;;;;;;;;;;;;29.68;60.53;101401.72;5027423;28;20109;-84
2023/05/22 11:52:18;;;;;;;;;;;;;;;30.16;55.72;101398.06;5044840;28;19921;-83
2023/05/22 11:54:44;;;;;;;;;;;;;;;29.67;52.70;101394.50;5015856;28;19920;-84
2023/05/22 11:57:09;;;;;;;;;;;;;;;29.89;58.05;101400.38;5042321;28;19931;-84
2023/05/22 11:59:35;;;;;;;;;;;;;;;28.53;57.63;101394.69;5016908;28;19921;-83
2023/05/22 12:02:00;;;;;;;;;;;;;;;27.92;61.46;101396.22;5024884;28;19965;-83
2023/05/22 12:04:25;;;;;;;;;;;;;;;28.50;59.83;101392.38;5038680;28;19917;-83
2023/05/22 12:06:51;;;;;;;;;;;;;;;28.29;60.07;101393.63;5021176;28;20358;-84
2023/05/22 12:09:16;;;;;;;;;;;;;;;28.11;66.63;101394.38;5040227;28;19925;-85
2023/05/22 12:11:45;;;;;;;;;;;;;;;26.77;66.07;101388.31;5030320;28;19921;-84
2023/05/22 12:14:11;;;;;;;;;;;;;;;27.21;71.48;101379.56;5020916;28;20387;-84
2023/05/22 12:16:36;;;;;;;;;;;;;;;27.60;66.38;101379.63;5037625;28;20061;-85
2023/05/22 12:19:08;;;;;;;;;;;;;;;27.88;67.90;101383.91;5028902;28;20374;-84
2023/05/22 12:21:35;;;;;;;;;;;;;;;29.19;69.01;101375.72;5041932;28;19928;-84
2023/05/22 12:24:04;;;;;;;;;;;;;;;29.25;64.10;101375.88;5040981;28;19920;-85